NCAR-RAP Real-Time Weather Data

Output produced by METARs form (06 May 2021  16:21 UTC)
found at http://weather.rap.ucar.edu/surface/
 
KOKC 061552Z 33015KT 10SM SCT130 SCT150 19/12 A3029 RMK AO2 SLP248 T01940117
KOKC 061452Z 33013KT 10SM SCT130 SCT150 18/11 A3029 RMK AO2 SLP248 T01780106 51015
KOKC 061352Z 33011KT 10SM BKN130 BKN150 16/10 A3027 RMK AO2 SLP245 T01610100
KOKC 061252Z 33005KT 10SM BKN130 BKN150 14/11 A3026 RMK AO2 SLP238 T01390106
KOKC 061152Z 30005KT 10SM SCT100 BKN130 BKN150 13/11 A3024 RMK AO2 SLP232 60000 70002 T01330106 10144 20128 53010
KOKC 061052Z 00000KT 10SM SCT100 BKN130 BKN150 13/11 A3021 RMK AO2 RAB42E52 SLP222 P0000 T01330106
KOKC 060952Z 34005KT 10SM BKN130 OVC150 14/10 A3021 RMK AO2 SLP223 T01390100
KOKC 060852Z 30004KT 10SM BKN130 OVC150 14/10 A3021 RMK AO2 SLP221 T01390100 53014
KOKC 060752Z 36004KT 10SM BKN130 OVC150 14/09 A3020 RMK AO2 SLP217 T01440094
KOKC 060652Z 19003KT 10SM SCT130 BKN150 BKN180 13/09 A3017 RMK AO2 SLP208 T01280094
KOKC 060552Z 19009KT 10SM BKN110 BKN150 BKN180 14/09 A3017 RMK AO2 WSHFT 0456 RAE13 SLP208 P0001 60002 T01390089 10222 20133 402280078 50004
KOKC 060516Z 21008KT 10SM SCT085 OVC100 14/10 A3020 RMK AO2 WSHFT 0456 RAE13 P0001 T01390100
KOKC 060452Z 20004KT 9SM -RA SCT060 OVC080 15/11 A3023 RMK AO2 RAB09 SLP229 P0001 T01500106
KOKC 060352Z 09008KT 10SM SCT100 SCT150 BKN250 17/06 A3018 RMK AO2 SLP211 T01720056
KOKC 060252Z 09007KT 10SM FEW100 SCT150 SCT250 17/08 A3015 RMK AO2 SLP203 T01720078 53020
KOKC 060152Z 00000KT 10SM FEW100 FEW250 17/07 A3012 RMK AO2 SLP195 T01720072